Portada
METAR-TAF:

METAR-TAF

Aeroports :

Phrae, Tailàndia

latitud: 18-10N, longitud: 100-10E, altitud: 161 m

Observació

L'informe es va fer fa 9 hores i 18 minuts, a les 11:00 UTC
Vent 8 kt del Sud-Oest
Temperatura 32°C
Humitat 63%
Pressió 1003 hPa
Visibilitat 10 km o més
Escasses núvols a una alçada de 2500 ft

METAR: VTCP 261100Z 23008KT 9999 FEW025 32/24 Q1003 NOSIG

Hora: 03:18 (20:18 UTC)

Pronòstic

L'informe es va fer fa 3 hores i 18 minuts, a les 17:00 UTC
Pronòstic vàlid del 26 a les 18 UTC al 27 a les 18 UTC
Vent 5 kt del Sud/Sud-Oest
Visibilitat 10 km o més
Núvols disperses a una alçada de 2500 ft
Temporalment
l' 27 a les 08 UTC al 27 a les 14 UTC
Vent 15 kt amb direcció variable amb ràfegues de 25 kt
Visibilitat: 5000 m
Escasses núvols a una alçada de 2000 ft, Cumulonimbus.
Cel ennuvolat a una alçada de 3000 ft
tempesta, pluja

TAF: VTCP 261700Z 2618/2718 21005KT 9999 SCT025 TEMPO 2708/2714 VRB15G25KT 5000 TSRA FEW020CB BKN030

Observacions i pronòstics meteorològics de més de 4000 aeroports (METAR i TAF).

Les estacions disponibles són els punts grocs i vermells al mapa.

Posi el ratolí al punt desitjat per veure el nom de l'estació.

Feu clic per veure les observacions i els pronòstics meteorològics.

Per canviar el mapa: feu clic els botons verds amb una creu de color negre per apropar; al botó verd amb un guió per allunyar la imatge; o en les fletxes verdes per a mapes adjacents.


METAR-TAF: